Hollister, Wisconsin
Current Conditions -  °F | °C
As of 12:55 PM on Sunday 23 Nov 2014 (Local Time) from KAIG Reporting Station
Moderate Fog Moderate Fog  
Wind Chill:   Ceiling: 300
Heat Index:   Visibility: 0mi
Dew Point:   Wind: 6mph
Humidity: 100%   Direction: 170°S
Pressure: 29.48"   Gusts: NA
Location:  45.261°N, 88.731°W
Report Text: KAIG 231855Z AUTO 17005KT M1/4SM FG OVC003 04/04 A2948 RMK AO2 T00440044
Loading
Personal Weather Stations






























Interactive Weather Map New forecast layout! Learn more

10-Day Weather Forecast

Advertisements
Track Severe Weather on mobile